Time;durP1;ratioP1;P1;durP2;ratioP2;P2;SDS_P1;SDS_P2;PMS_P1;PMS_P2;Temp;Humidity;BMP_temperature;BMP_pressure;BME280_temperature;BME280_humidity;BME280_pressure;Samples;Min_cycle;Max_cycle;Signal;HPM_P1;HPM_P2
2023/10/18 00:00:35;;;;;;;20.67;17.83;;;;;;;3.27;99.91;101030.97;7385296;19;20909;-72
2023/10/18 00:03:06;;;;;;;23.10;19.47;;;;;;;3.24;100.00;101024.16;7384569;19;20426;-72
2023/10/18 00:05:39;;;;;;;25.38;19.95;;;;;;;3.22;100.00;101023.47;7387812;19;20685;-72
2023/10/18 00:08:09;;;;;;;28.38;21.90;;;;;;;3.24;100.00;101029.41;7385800;19;20360;-72
2023/10/18 00:10:36;;;;;;;28.90;22.38;;;;;;;3.25;100.00;101033.72;7380389;19;20390;-72
2023/10/18 00:13:03;;;;;;;28.17;21.65;;;;;;;3.26;100.00;101038.00;7385201;19;20364;-72
2023/10/18 00:15:31;;;;;;;32.30;23.17;;;;;;;3.25;100.00;101033.72;7384988;19;20379;-72
2023/10/18 00:17:58;;;;;;;30.75;22.08;;;;;;;3.26;100.00;101026.69;7385546;19;20364;-72
2023/10/18 00:20:25;;;;;;;21.55;18.45;;;;;;;3.24;100.00;101034.66;7382840;19;20382;-72
2023/10/18 00:22:54;;;;;;;20.13;16.93;;;;;;;3.20;99.82;101038.47;7384488;19;20396;-72
2023/10/18 00:25:21;;;;;;;19.42;16.33;;;;;;;3.16;99.47;101037.03;7385574;19;20439;-72
2023/10/18 00:27:48;;;;;;;21.03;17.00;;;;;;;3.11;99.29;101038.38;7382873;19;20759;-72
2023/10/18 00:30:19;;;;;;;21.17;17.23;;;;;;;3.05;99.26;101037.03;7386586;19;20365;-72
2023/10/18 00:32:46;;;;;;;20.17;16.93;;;;;;;3.01;99.47;101044.28;7387966;19;20746;-73
2023/10/18 00:35:31;;;;;;;23.52;18.98;;;;;;;2.96;99.36;101035.13;7389617;19;20417;-72
2023/10/18 00:37:58;;;;;;;22.15;18.00;;;;;;;2.92;99.45;101039.75;7393444;19;20360;-72
2023/10/18 00:43:20;;;;;;;25.33;19.30;;;;;;;2.84;99.55;101032.47;7392047;19;20384;-72
2023/10/18 00:45:50;;;;;;;23.55;19.80;;;;;;;2.82;99.66;101026.50;7390553;19;20337;-72
2023/10/18 00:48:20;;;;;;;24.23;19.20;;;;;;;2.81;99.56;101030.09;7391596;19;20370;-72
2023/10/18 00:50:51;;;;;;;23.42;18.52;;;;;;;2.80;99.69;101020.56;7391346;19;20372;-72
2023/10/18 00:53:25;;;;;;;23.90;18.48;;;;;;;2.80;99.74;101024.97;7389591;19;20915;-72
2023/10/18 00:55:57;;;;;;;23.88;18.75;;;;;;;2.78;99.96;101022.44;7389082;19;20448;-72
2023/10/18 00:58:27;;;;;;;26.55;19.42;;;;;;;2.79;100.00;101028.56;7391141;19;20885;-72
2023/10/18 01:00:56;;;;;;;24.77;19.17;;;;;;;2.78;99.75;101017.22;7387362;19;20372;-72
2023/10/18 01:03:29;;;;;;;26.00;19.30;;;;;;;2.77;99.75;101023.41;7391759;19;20876;-72
2023/10/18 01:06:08;;;;;;;25.38;20.48;;;;;;;2.77;100.00;101023.41;7391255;19;20366;-72
2023/10/18 01:08:38;;;;;;;25.52;19.75;;;;;;;2.76;100.00;101021.75;7390888;19;20679;-72
2023/10/18 01:11:07;;;;;;;24.10;19.83;;;;;;;2.77;100.00;101014.72;7389922;19;20372;-72
2023/10/18 01:13:37;;;;;;;23.30;18.47;;;;;;;2.76;100.00;101013.91;7389547;19;20393;-72
2023/10/18 01:16:23;;;;;;;26.83;20.87;;;;;;;2.77;100.00;101005.09;7389925;19;20337;-72
2023/10/18 01:18:54;;;;;;;25.17;20.13;;;;;;;2.78;100.00;101014.59;7388773;19;20363;-72
2023/10/18 01:21:22;;;;;;;25.20;18.90;;;;;;;2.79;100.00;101015.44;7392353;19;20343;-72
2023/10/18 01:23:51;;;;;;;26.42;20.45;;;;;;;2.79;100.00;101008.41;7388161;19;20877;-72
2023/10/18 01:26:23;;;;;;;25.83;20.10;;;;;;;2.80;100.00;101004.84;7389701;19;20373;-72
2023/10/18 01:28:52;;;;;;;24.63;19.97;;;;;;;2.82;100.00;101013.41;7388831;19;20709;-72
2023/10/18 01:31:19;;;;;;;26.23;20.20;;;;;;;2.84;100.00;101005.44;7387704;19;20702;-73
2023/10/18 01:33:47;;;;;;;25.75;20.30;;;;;;;2.84;100.00;100990.56;7391836;19;20389;-72
2023/10/18 01:36:18;;;;;;;27.77;20.65;;;;;;;2.87;100.00;101002.59;7387234;19;20400;-72
2023/10/18 01:38:48;;;;;;;27.67;21.55;;;;;;;2.88;100.00;100995.56;7389560;19;20428;-72
2023/10/18 01:41:25;;;;;;;28.52;21.02;;;;;;;2.90;100.00;100989.25;7389562;19;20356;-72
2023/10/18 01:43:55;;;;;;;30.73;22.23;;;;;;;2.91;100.00;100996.19;7383026;19;20451;-72
2023/10/18 01:46:23;;;;;;;34.30;23.27;;;;;;;2.94;100.00;100993.31;7383895;19;20369;-72
2023/10/18 01:48:51;;;;;;;34.13;24.00;;;;;;;2.95;100.00;100981.03;7378136;19;20631;-72
2023/10/18 01:51:19;;;;;;;28.25;21.90;;;;;;;2.95;100.00;100983.66;7374986;19;20364;-72
2023/10/18 01:53:46;;;;;;;25.03;19.43;;;;;;;2.95;100.00;100976.63;7382277;19;20428;-72
2023/10/18 01:56:17;;;;;;;23.90;19.00;;;;;;;2.95;100.00;100975.78;7386258;19;20415;-72
2023/10/18 01:58:46;;;;;;;25.17;19.58;;;;;;;2.94;100.00;100979.38;7386488;19;20365;-72
2023/10/18 02:01:16;;;;;;;28.55;20.48;;;;;;;2.93;100.00;100977.69;7388807;19;20912;-72
2023/10/18 02:03:44;;;;;;;26.88;19.05;;;;;;;2.91;100.00;100980.47;7387719;19;20715;-72
2023/10/18 02:06:15;;;;;;;22.33;17.98;;;;;;;2.91;100.00;100979.59;7390202;19;20362;-72
2023/10/18 02:08:42;;;;;;;21.83;18.48;;;;;;;2.90;100.00;100972.72;7386447;19;20374;-72
2023/10/18 02:11:09;;;;;;;22.85;18.73;;;;;;;2.89;100.00;100971.03;7389327;19;21298;-72
2023/10/18 02:13:36;;;;;;;23.33;18.90;;;;;;;2.88;100.00;100969.38;7386249;19;20376;-72
2023/10/18 02:16:06;;;;;;;22.48;17.38;;;;;;;2.85;100.00;100963.41;7388353;19;20360;-72
2023/10/18 02:18:34;;;;;;;22.58;17.85;;;;;;;2.83;100.00;100962.69;7389472;19;20733;-72
2023/10/18 02:21:02;;;;;;;23.43;18.57;;;;;;;2.82;100.00;100949.72;7389411;19;20352;-72
2023/10/18 02:23:34;;;;;;;23.90;19.55;;;;;;;2.81;100.00;100951.50;7387379;19;20381;-72
2023/10/18 02:26:09;;;;;;;23.33;19.20;;;;;;;2.80;100.00;100947.19;7390540;19;20360;-72
2023/10/18 02:28:36;;;;;;;25.10;18.80;;;;;;;2.80;100.00;100944.56;7386711;19;20328;-72
2023/10/18 02:31:13;;;;;;;25.13;19.48;;;;;;;2.82;100.00;100939.22;7387963;19;20345;-72
2023/10/18 02:33:42;;;;;;;22.85;18.70;;;;;;;2.83;100.00;100941.75;7389031;19;20372;-72
2023/10/18 02:36:53;;;;;;;22.95;18.15;;;;;;;2.82;100.00;100940.06;7388937;19;20432;-72
2023/10/18 02:39:00;;;;;;;25.30;19.90;;;;;;;2.82;100.00;100934.81;7387661;19;20462;-72
2023/10/18 02:41:27;;;;;;;25.30;19.30;;;;;;;2.83;100.00;100933.88;7386913;19;20376;-72
2023/10/18 02:43:54;;;;;;;23.33;17.77;;;;;;;2.83;100.00;100926.00;7388126;19;20371;-72
2023/10/18 02:46:25;;;;;;;24.60;18.55;;;;;;;2.83;100.00;100931.25;7390626;19;20341;-72
2023/10/18 02:48:54;;;;;;;23.40;18.75;;;;;;;2.82;100.00;100929.56;7386913;19;20380;-72
2023/10/18 02:51:22;;;;;;;22.60;17.98;;;;;;;2.82;100.00;100928.75;7388529;19;20849;-72
2023/10/18 02:53:51;;;;;;;22.60;17.92;;;;;;;2.81;100.00;100930.53;7388327;19;20368;-72
2023/10/18 02:57:01;;;;;;;23.33;18.00;;;;;;;2.79;100.00;100935.06;7386297;19;20453;-72
2023/10/18 02:59:09;;;;;;;20.23;16.83;;;;;;;2.78;100.00;100937.78;7387187;19;20390;-72
2023/10/18 03:01:48;;;;;;;21.60;17.10;;;;;;;2.79;100.00;100926.38;7386728;19;20376;-72
2023/10/18 03:04:16;;;;;;;21.30;17.25;;;;;;;2.77;100.00;100923.88;7389811;19;20364;-72
2023/10/18 03:06:45;;;;;;;18.63;16.27;;;;;;;2.75;100.00;100914.47;7386239;19;20741;-72
2023/10/18 03:11:59;;;;;;;21.38;17.40;;;;;;;2.70;100.00;100914.81;7388172;19;20954;-72
2023/10/18 03:14:41;;;;;;;21.48;17.42;;;;;;;2.69;100.00;100907.06;7386113;19;20364;-73
2023/10/18 03:17:19;;;;;;;22.20;17.27;;;;;;;2.67;100.00;100911.59;7381817;19;20727;-72
2023/10/18 03:22:43;;;;;;;19.80;15.93;;;;;;;2.58;100.00;100916.59;7381618;19;20758;-72
2023/10/18 03:25:13;;;;;;;21.08;16.50;;;;;;;2.55;100.00;100915.97;7383528;19;20360;-72
2023/10/18 03:27:50;;;;;;;19.23;16.15;;;;;;;2.54;100.00;100909.09;7381660;19;20356;-72
2023/10/18 03:30:18;;;;;;;21.77;16.30;;;;;;;2.50;100.00;100903.25;7381236;19;20741;-72
2023/10/18 03:32:49;;;;;;;18.90;15.82;;;;;;;2.48;100.00;100899.91;7383621;19;20367;-72
2023/10/18 03:35:20;;;;;;;19.73;16.83;;;;;;;2.46;100.00;100896.56;7381020;19;20360;-72
2023/10/18 03:37:47;;;;;;;19.00;16.23;;;;;;;2.46;100.00;100907.06;7381180;19;20366;-72
2023/10/18 03:40:19;;;;;;;19.70;17.00;;;;;;;2.44;100.00;100899.34;7381933;19;20369;-72
2023/10/18 03:42:52;;;;;;;21.38;18.13;;;;;;;2.43;100.00;100905.50;7381053;19;20398;-72
2023/10/18 03:45:22;;;;;;;22.52;17.80;;;;;;;2.41;100.00;100902.16;7384863;19;20356;-72
2023/10/18 03:48:06;;;;;;;20.33;17.03;;;;;;;2.40;100.00;100897.91;7381383;19;20908;-72
2023/10/18 03:50:40;;;;;;;21.23;17.02;;;;;;;2.36;100.00;100896.47;7383051;19;20361;-72
2023/10/18 03:53:08;;;;;;;19.70;16.45;;;;;;;2.36;100.00;100896.47;7377621;19;20396;-72
2023/10/18 03:55:39;;;;;;;18.65;16.55;;;;;;;2.36;100.00;100895.59;7380026;19;20360;-72
2023/10/18 03:58:06;;;;;;;18.80;16.00;;;;;;;2.33;100.00;100896.69;7379951;19;20400;-72
2023/10/18 04:00:46;;;;;;;19.27;16.13;;;;;;;2.29;100.00;100892.63;7382540;19;20428;-73
2023/10/18 04:03:20;;;;;;;20.55;16.67;;;;;;;2.26;100.00;100892.88;7380391;19;20439;-72
2023/10/18 04:05:49;;;;;;;19.40;16.27;;;;;;;2.24;100.00;100892.16;7382356;19;20443;-73
2023/10/18 04:08:19;;;;;;;17.60;15.40;;;;;;;2.22;100.00;100879.16;7388348;19;20832;-72
2023/10/18 04:10:58;;;;;;;18.27;15.40;;;;;;;2.20;100.00;100877.63;7387598;19;20385;-72
2023/10/18 04:13:31;;;;;;;20.15;16.30;;;;;;;2.17;100.00;100876.09;7386926;19;20381;-72
2023/10/18 04:16:11;;;;;;;19.63;16.20;;;;;;;2.17;100.00;100875.25;7389937;19;20382;-73
2023/10/18 04:18:41;;;;;;;20.50;16.48;;;;;;;2.15;100.00;100872.75;7387922;19;20758;-73
2023/10/18 04:21:15;;;;;;;18.77;16.48;;;;;;;2.15;100.00;100870.13;7388055;19;20372;-72
2023/10/18 04:23:46;;;;;;;19.55;16.48;;;;;;;2.15;100.00;100871.91;7391028;19;20332;-72
2023/10/18 04:26:18;;;;;;;18.38;16.27;;;;;;;2.15;100.00;100877.16;7390868;19;20356;-72
2023/10/18 04:28:46;;;;;;;19.92;16.33;;;;;;;2.14;100.00;100872.84;7382598;19;20427;-72
2023/10/18 04:31:14;;;;;;;19.80;16.20;;;;;;;2.12;100.00;100867.72;7384469;19;20367;-72
2023/10/18 04:33:42;;;;;;;19.50;16.92;;;;;;;2.11;100.00;100863.47;7386645;19;20460;-72
2023/10/18 04:36:12;;;;;;;19.27;15.68;;;;;;;2.10;100.00;100869.63;7389027;19;20367;-72
2023/10/18 04:38:43;;;;;;;20.42;16.40;;;;;;;2.09;100.00;100867.97;7387611;19;20368;-73
2023/10/18 04:41:23;;;;;;;20.08;16.05;;;;;;;2.08;100.00;100870.69;7391192;19;20897;-72
2023/10/18 04:44:05;;;;;;;16.75;14.50;;;;;;;2.02;100.00;100865.00;7390738;19;20371;-72
2023/10/18 04:46:35;;;;;;;19.67;15.93;;;;;;;2.00;100.00;100856.41;7387678;19;20356;-72
2023/10/18 04:54:10;;;;;;;19.38;16.20;;;;;;;1.90;99.63;100858.06;7386097;19;20372;-72
2023/10/18 04:56:38;;;;;;;20.15;15.90;;;;;;;1.88;100.00;100852.09;7390621;19;20353;-72
2023/10/18 04:59:10;;;;;;;19.75;15.80;;;;;;;1.87;99.95;100858.28;7384961;19;20714;-72
2023/10/18 05:01:49;;;;;;;21.07;15.43;;;;;;;1.86;99.91;100848.75;7385905;19;20372;-72
2023/10/18 05:04:20;;;;;;;25.65;17.70;;;;;;;1.86;99.90;100850.56;7391766;19;20389;-72
2023/10/18 05:06:54;;;;;;;21.30;16.85;;;;;;;1.85;100.00;100860.19;7388461;19;20344;-72
2023/10/18 05:09:30;;;;;;;17.58;15.13;;;;;;;1.84;99.94;100855.88;7386750;19;20366;-72
2023/10/18 05:12:07;;;;;;;25.85;16.50;;;;;;;1.83;99.87;100852.44;7390448;19;20713;-72
2023/10/18 05:14:50;;;;;;;73.00;18.05;;;;;;;1.84;99.99;100848.88;7385936;19;20371;-72
2023/10/18 05:17:23;;;;;;;106.10;18.67;;;;;;;1.87;99.99;100858.28;7383294;19;20368;-72
2023/10/18 05:19:51;;;;;;;127.10;22.20;;;;;;;1.90;100.00;100844.97;7387037;19;20812;-72
2023/10/18 05:22:24;;;;;;;145.77;19.88;;;;;;;1.94;100.00;100840.34;7389335;19;20329;-72
2023/10/18 05:25:15;;;;;;;130.73;18.75;;;;;;;1.97;100.00;100840.94;7383504;19;20849;-72
2023/10/18 05:27:59;;;;;;;127.77;17.67;;;;;;;2.00;100.00;100838.09;7384542;19;20386;-72
2023/10/18 05:31:03;;;;;;;70.75;16.85;;;;;;;2.08;100.00;100840.13;7386431;19;20810;-72
2023/10/18 05:33:16;;;;;;;78.35;18.50;;;;;;;2.14;100.00;100841.44;7383280;19;21067;-72
2023/10/18 05:35:47;;;;;;;85.95;19.30;;;;;;;2.22;100.00;100836.47;7382916;19;20369;-72
2023/10/18 05:43:30;;;;;;;100.55;19.95;;;;;;;2.43;100.00;100828.75;7382246;19;20384;-72
2023/10/18 05:45:59;;;;;;;92.82;19.02;;;;;;;2.51;100.00;100826.38;7386055;19;20428;-72
2023/10/18 05:48:31;;;;;;;59.30;17.77;;;;;;;2.58;100.00;100824.09;7387464;19;20504;-72
2023/10/18 05:54:04;;;;;;;58.70;17.90;;;;;;;2.73;100.00;100829.94;7380357;19;20683;-72
2023/10/18 05:56:32;;;;;;;71.18;17.30;;;;;;;2.78;100.00;100818.13;7385164;19;20380;-72
2023/10/18 06:01:58;;;;;;;71.28;18.27;;;;;;;2.92;100.00;100805.72;7381943;19;20888;-73
2023/10/18 06:04:27;;;;;;;78.22;17.20;;;;;;;2.98;100.00;100805.25;7382769;19;20368;-73
2023/10/18 06:06:58;;;;;;;100.60;17.95;;;;;;;3.02;100.00;100804.03;7387846;19;20364;-72
2023/10/18 06:09:32;;;;;;;80.85;17.60;;;;;;;3.05;100.00;100806.41;7387409;19;20762;-73
2023/10/18 06:12:00;;;;;;;102.82;16.05;;;;;;;3.11;100.00;100802.47;7386075;19;20872;-73
2023/10/18 06:14:40;;;;;;;88.53;14.85;;;;;;;3.14;100.00;100797.78;7382369;19;21051;-72
2023/10/18 06:17:12;;;;;;;122.85;15.43;;;;;;;3.20;100.00;100799.91;7383156;19;20459;-73
2023/10/18 06:19:41;;;;;;;105.00;15.10;;;;;;;3.25;100.00;100792.53;7384671;19;20382;-73
2023/10/18 06:22:29;;;;;;;79.47;13.95;;;;;;;3.28;99.55;100793.22;7385256;19;20802;-73
2023/10/18 06:24:57;;;;;;;100.18;15.82;;;;;;;3.35;99.65;100789.13;7384129;19;20369;-73
2023/10/18 06:27:24;;;;;;;83.65;15.07;;;;;;;3.40;100.00;100781.72;7386523;19;20376;-73
2023/10/18 06:29:53;;;;;;;125.40;17.40;;;;;;;3.46;100.00;100781.22;7386858;19;20440;-73
2023/10/18 06:32:25;;;;;;;138.50;19.40;;;;;;;3.50;99.76;100772.13;7385086;19;20376;-73
2023/10/18 06:35:09;;;;;;;149.30;20.10;;;;;;;3.55;100.00;100772.59;7382584;19;20376;-73
2023/10/18 06:37:42;;;;;;;185.48;22.20;;;;;;;3.63;100.00;100780.66;7385504;19;20361;-73
2023/10/18 06:43:28;;;;;;;174.02;22.90;;;;;;;3.81;100.00;100774.84;7381462;19;20682;-73
2023/10/18 06:45:57;;;;;;;197.07;22.50;;;;;;;3.90;100.00;100774.06;7384083;19;20377;-73
2023/10/18 06:48:26;;;;;;;205.37;23.30;;;;;;;4.00;100.00;100774.94;7385994;19;20364;-73
2023/10/18 06:50:53;;;;;;;170.73;22.77;;;;;;;4.11;100.00;100770.56;7384892;19;20368;-73
2023/10/18 06:53:20;;;;;;;128.80;21.55;;;;;;;4.17;100.00;100770.06;7382649;19;21701;-73
2023/10/18 06:55:58;;;;;;;124.93;21.88;;;;;;;4.27;100.00;100765.66;7384024;19;20376;-73
2023/10/18 07:01:03;;;;;;;116.03;22.17;;;;;;;4.41;100.00;100781.06;7384359;19;21055;-73
2023/10/18 07:03:33;;;;;;;76.43;20.63;;;;;;;4.51;100.00;100777.66;7385220;19;20708;-73
2023/10/18 07:06:16;;;;;;;75.30;21.07;;;;;;;4.56;99.93;100775.44;7385261;19;20861;-73
2023/10/18 07:08:45;;;;;;;41.20;20.60;;;;;;;4.68;100.00;100780.44;7379555;19;20364;-73
2023/10/18 07:11:18;;;;;;;25.02;19.67;;;;;;;4.79;100.00;100770.78;7383813;19;20364;-73
2023/10/18 07:14:04;;;;;;;26.92;19.30;;;;;;;4.88;100.00;100768.16;7382284;19;20375;-79
2023/10/18 07:21:45;;;;;;;20.65;18.08;;;;;;;5.25;99.70;100756.19;7388476;19;21466;-79
2023/10/18 07:24:12;;;;;;;19.95;17.85;;;;;;;5.35;99.25;100756.16;7386523;19;21044;-79
2023/10/18 07:26:40;;;;;;;20.42;17.75;;;;;;;5.40;99.01;100762.66;7380718;19;20381;-79
2023/10/18 07:29:07;;;;;;;19.83;17.30;;;;;;;5.47;98.42;100747.97;7383817;19;20468;-79
2023/10/18 07:31:38;;;;;;;19.75;17.75;;;;;;;5.57;98.51;100745.34;7386036;19;20386;-79
2023/10/18 07:34:08;;;;;;;19.45;17.45;;;;;;;5.64;98.06;100735.91;7382703;19;20364;-79
2023/10/18 07:36:38;;;;;;;19.58;17.55;;;;;;;5.72;97.95;100732.56;7386062;19;20351;-79
2023/10/18 07:39:06;;;;;;;20.17;18.05;;;;;;;5.81;98.16;100742.22;7385634;19;20379;-78
2023/10/18 07:41:36;;;;;;;20.40;18.30;;;;;;;5.92;97.96;100728.06;7378952;19;20805;-78
2023/10/18 07:44:05;;;;;;;19.10;17.13;;;;;;;6.01;97.76;100737.75;7379586;19;20860;-78
2023/10/18 07:46:34;;;;;;;19.90;17.83;;;;;;;6.13;97.79;100730.50;7381572;19;20754;-79
2023/10/18 07:49:04;;;;;;;20.90;18.70;;;;;;;6.23;97.46;100741.03;7382537;19;20370;-78
2023/10/18 07:51:32;;;;;;;20.15;17.95;;;;;;;6.37;97.48;100735.25;7380739;19;20396;-79
2023/10/18 07:54:02;;;;;;;20.85;18.65;;;;;;;6.50;97.46;100727.00;7382040;19;20364;-78
2023/10/18 07:56:31;;;;;;;20.27;18.10;;;;;;;6.63;97.59;100726.63;7384692;19;20363;-78
2023/10/18 08:04:20;;;;;;;20.15;18.05;;;;;;;7.07;96.48;100727.56;7372655;19;20360;-78
2023/10/18 08:06:50;;;;;;;20.95;18.85;;;;;;;7.15;96.10;100721.56;7374276;19;20379;-78
2023/10/18 08:09:19;;;;;;;21.40;19.10;;;;;;;7.22;95.49;100712.03;7376862;19;20416;-78
2023/10/18 08:11:47;;;;;;;21.10;18.87;;;;;;;7.26;94.56;100713.38;7376230;19;21016;-78
2023/10/18 08:14:18;;;;;;;21.30;18.05;;;;;;;7.29;94.11;100713.09;7378474;19;20467;-78
2023/10/18 08:16:52;;;;;;;20.27;18.23;;;;;;;7.35;94.38;100715.13;7374751;19;20367;-78
2023/10/18 08:19:22;;;;;;;20.38;18.27;;;;;;;7.43;94.20;100713.53;7378838;19;20428;-78
2023/10/18 08:24:41;;;;;;;21.63;19.38;;;;;;;7.65;94.76;100704.25;7382732;19;20944;-78
2023/10/18 08:27:11;;;;;;;20.73;18.58;;;;;;;7.81;94.43;100700.91;7381590;19;20351;-78
2023/10/18 08:29:38;;;;;;;20.77;18.58;;;;;;;7.95;94.33;100695.03;7380542;19;20340;-79
2023/10/18 08:32:29;;;;;;;20.70;18.50;;;;;;;8.09;94.09;100691.78;7381982;19;20361;-78
2023/10/18 08:35:05;;;;;;;20.75;18.45;;;;;;;8.27;94.03;100690.88;7378944;19;20372;-78
2023/10/18 08:37:36;;;;;;;20.85;17.90;;;;;;;8.41;92.77;100692.91;7383240;19;20708;-78
2023/10/18 08:40:07;;;;;;;19.85;17.77;;;;;;;8.52;92.62;100687.34;7381758;19;20367;-78
2023/10/18 08:42:42;;;;;;;19.40;17.38;;;;;;;8.62;92.02;100689.00;7383067;19;20368;-78
2023/10/18 08:45:19;;;;;;;20.75;17.58;;;;;;;8.70;91.16;100678.44;7381610;19;20362;-79
2023/10/18 08:47:49;;;;;;;19.27;17.35;;;;;;;8.81;90.82;100672.00;7383297;19;20400;-78
2023/10/18 08:50:18;;;;;;;19.40;17.30;;;;;;;8.91;90.19;100673.50;7389448;19;20378;-78
2023/10/18 08:52:48;;;;;;;20.02;17.88;;;;;;;9.02;90.17;100663.59;7391139;19;20357;-78
2023/10/18 08:55:22;;;;;;;18.40;16.50;;;;;;;9.13;89.09;100671.19;7394355;19;20420;-78
2023/10/18 08:57:56;;;;;;;18.42;16.52;;;;;;;9.24;89.06;100668.19;7395666;19;21216;-78
2023/10/18 09:02:52;;;;;;;20.73;17.17;;;;;;;9.45;87.42;100658.91;7395456;19;20792;-78
2023/10/18 09:05:22;;;;;;;17.33;15.43;;;;;;;9.56;87.45;100662.06;7395722;19;20357;-78
2023/10/18 09:07:51;;;;;;;18.20;15.90;;;;;;;9.65;86.18;100659.34;7396848;19;20763;-78
2023/10/18 09:15:55;;;;;;;16.88;14.98;;;;;;;9.75;83.51;100657.34;7391991;19;20957;-78
2023/10/18 09:18:30;;;;;;;16.80;15.00;;;;;;;9.86;83.75;100656.16;7394942;19;20508;-78
2023/10/18 09:21:07;;;;;;;16.38;14.57;;;;;;;9.97;84.05;100647.84;7394612;19;20435;-78
2023/10/18 09:23:35;;;;;;;17.13;14.95;;;;;;;10.13;84.43;100645.09;7396092;19;20403;-78
2023/10/18 09:26:10;;;;;;;16.67;14.80;;;;;;;10.32;84.23;100640.41;7396392;19;20409;-78
2023/10/18 09:28:41;;;;;;;16.83;14.60;;;;;;;10.48;83.50;100635.00;7395961;19;20403;-78
2023/10/18 09:31:18;;;;;;;16.27;14.48;;;;;;;10.57;81.22;100631.28;7397339;19;20397;-78
2023/10/18 09:33:49;;;;;;;15.52;13.20;;;;;;;10.65;81.20;100629.56;7397741;19;20369;-78
2023/10/18 09:36:24;;;;;;;16.60;13.90;;;;;;;10.72;81.11;100626.06;7396768;19;20373;-78
2023/10/18 09:38:53;;;;;;;15.13;13.32;;;;;;;10.80;80.51;100627.81;7393860;19;20435;-78
2023/10/18 09:41:21;;;;;;;16.83;13.13;;;;;;;10.86;79.49;100627.13;7394171;19;20344;-78
2023/10/18 09:43:49;;;;;;;15.75;13.13;;;;;;;10.90;78.96;100631.06;7395750;19;20348;-78
2023/10/18 09:46:16;;;;;;;15.90;12.75;;;;;;;10.96;78.71;100626.84;7393710;19;20818;-78
2023/10/18 09:48:46;;;;;;;15.35;13.15;;;;;;;11.05;79.00;100622.28;7395148;19;20378;-78
2023/10/18 09:51:15;;;;;;;14.32;12.80;;;;;;;11.13;78.28;100619.56;7394189;19;20348;-78
2023/10/18 09:53:49;;;;;;;13.63;12.23;;;;;;;11.15;77.49;100615.72;7395189;19;20379;-78
2023/10/18 09:56:24;;;;;;;15.45;12.43;;;;;;;11.21;77.42;100614.19;7393306;19;20344;-78
2023/10/18 09:59:02;;;;;;;13.88;12.32;;;;;;;11.27;76.38;100605.50;7393847;19;20348;-78
2023/10/18 10:04:12;;;;;;;14.43;12.30;;;;;;;11.44;76.28;100614.13;7397331;19;20353;-78
2023/10/18 10:06:45;;;;;;;17.50;12.50;;;;;;;11.55;76.95;100618.97;7396024;19;20680;-78
2023/10/18 10:09:16;;;;;;;15.90;13.05;;;;;;;11.66;76.12;100609.72;7395413;19;20349;-78
2023/10/18 10:11:47;;;;;;;14.05;12.40;;;;;;;11.76;75.25;100601.47;7394601;19;20424;-78
2023/10/18 10:14:16;;;;;;;16.43;12.23;;;;;;;11.84;75.46;100598.72;7391702;19;20529;-78
2023/10/18 10:16:58;;;;;;;14.90;12.33;;;;;;;11.97;75.06;100598.91;7393106;19;20387;-78
2023/10/18 10:19:30;;;;;;;14.30;12.43;;;;;;;12.09;74.43;100596.59;7394540;19;20349;-78
2023/10/18 10:22:04;;;;;;;16.08;12.23;;;;;;;12.21;74.19;100595.06;7395497;19;20984;-78
2023/10/18 10:24:43;;;;;;;13.47;10.60;;;;;;;12.31;73.56;100584.13;7392674;19;20349;-78
2023/10/18 10:27:27;;;;;;;13.18;10.38;;;;;;;12.39;72.57;100586.69;7392869;19;20324;-78
2023/10/18 10:32:47;;;;;;;14.52;10.23;;;;;;;12.73;72.73;100571.00;7394967;19;20378;-78
2023/10/18 10:35:20;;;;;;;12.48;9.43;;;;;;;12.92;72.35;100575.69;7392954;19;20361;-78
2023/10/18 10:37:47;;;;;;;11.00;8.43;;;;;;;13.04;70.13;100571.44;7393681;19;20428;-78
2023/10/18 10:43:13;;;;;;;10.55;8.10;;;;;;;13.19;65.00;100558.03;7391598;19;20369;-79
2023/10/18 10:48:18;;;;;;;11.50;8.45;;;;;;;13.25;64.69;100553.78;7393220;19;20355;-79
2023/10/18 10:50:50;;;;;;;10.75;8.43;;;;;;;13.30;63.97;100562.00;7395096;19;20325;-78
2023/10/18 10:53:45;;;;;;;10.18;8.23;;;;;;;13.35;63.29;100556.94;7395237;19;20743;-79
2023/10/18 10:56:39;;;;;;;11.68;8.07;;;;;;;13.44;62.68;100541.59;7392895;19;20356;-78
2023/10/18 11:01:44;;;;;;;10.27;8.00;;;;;;;13.58;62.53;100537.16;7394166;19;20337;-78
2023/10/18 11:04:29;;;;;;;10.53;8.03;;;;;;;13.65;61.46;100527.34;7399431;19;20453;-78
2023/10/18 11:07:01;;;;;;;9.50;7.03;;;;;;;13.66;60.89;100523.66;7397299;19;20362;-79
2023/10/18 11:09:32;;;;;;;10.23;7.50;;;;;;;13.72;60.77;100514.88;7393662;19;20362;-78
2023/10/18 11:12:04;;;;;;;10.15;7.50;;;;;;;13.81;60.79;100515.50;7394192;19;20682;-79
2023/10/18 11:14:31;;;;;;;10.48;7.10;;;;;;;13.96;59.52;100513.50;7391351;19;20333;-78
2023/10/18 11:17:03;;;;;;;10.30;7.35;;;;;;;14.17;60.20;100514.34;7392038;19;20377;-79
2023/10/18 11:19:30;;;;;;;8.88;6.95;;;;;;;14.45;60.54;100506.16;7390930;19;20358;-78
2023/10/18 11:21:58;;;;;;;8.70;7.22;;;;;;;14.73;59.24;100502.50;7391839;19;20382;-78
2023/10/18 11:24:27;;;;;;;9.07;7.00;;;;;;;14.93;58.61;100497.13;7391101;19;20358;-78
2023/10/18 11:26:57;;;;;;;8.70;6.60;;;;;;;15.15;58.18;100492.34;7395711;19;20881;-78
2023/10/18 11:29:24;;;;;;;7.63;5.90;;;;;;;15.26;56.08;100481.03;7395062;19;20715;-79
2023/10/18 11:31:58;;;;;;;9.15;6.38;;;;;;;15.29;54.43;100472.56;7391252;19;20359;-78
2023/10/18 11:34:26;;;;;;;8.55;6.20;;;;;;;15.35;55.24;100463.72;7391800;19;20337;-78
2023/10/18 11:37:01;;;;;;;7.05;5.32;;;;;;;15.35;54.01;100458.38;7392160;19;20353;-78
2023/10/18 11:39:34;;;;;;;6.85;5.50;;;;;;;15.38;53.29;100457.94;7391290;19;20890;-78
2023/10/18 11:42:02;;;;;;;7.97;5.55;;;;;;;15.34;52.65;100448.69;7391562;19;20353;-78
2023/10/18 11:44:33;;;;;;;8.10;5.60;;;;;;;15.30;52.77;100444.84;7390020;19;20859;-78
2023/10/18 11:47:20;;;;;;;6.32;5.38;;;;;;;15.36;53.42;100443.97;7391563;19;20836;-78
2023/10/18 11:49:54;;;;;;;8.88;5.78;;;;;;;15.53;53.39;100428.25;7391201;19;20349;-78
2023/10/18 11:52:21;;;;;;;6.60;4.90;;;;;;;15.65;52.18;100425.72;7389934;19;20356;-78
2023/10/18 11:54:52;;;;;;;6.75;5.32;;;;;;;15.78;51.65;100420.31;7388639;19;20356;-78
2023/10/18 11:57:35;;;;;;;6.75;4.40;;;;;;;15.93;51.10;100421.88;7391647;19;20365;-79
2023/10/18 12:00:26;;;;;;;8.68;4.80;;;;;;;16.04;50.77;100407.78;7391950;19;20325;-79
2023/10/18 12:02:55;;;;;;;7.78;4.70;;;;;;;16.10;49.52;100404.25;7390095;19;20486;-78
2023/10/18 12:05:27;;;;;;;9.77;4.80;;;;;;;16.09;49.13;100399.94;7389521;19;20872;-78
2023/10/18 12:08:05;;;;;;;7.20;4.47;;;;;;;16.06;49.34;100405.72;7389350;19;20345;-79
2023/10/18 12:10:35;;;;;;;8.82;4.28;;;;;;;15.94;48.29;100391.41;7390068;19;20744;-78
2023/10/18 12:13:07;;;;;;;5.75;4.05;;;;;;;15.83;47.70;100375.03;7390949;19;20348;-78
2023/10/18 12:15:34;;;;;;;6.90;4.47;;;;;;;15.80;48.26;100386.16;7390614;19;20872;-78
2023/10/18 12:18:05;;;;;;;6.10;4.00;;;;;;;15.85;48.75;100377.47;7389739;19;20332;-78
2023/10/18 12:20:35;;;;;;;5.68;3.90;;;;;;;15.85;48.13;100370.28;7389099;19;20349;-78
2023/10/18 12:23:13;;;;;;;7.05;4.30;;;;;;;15.90;48.10;100362.41;7390964;19;20370;-78
2023/10/18 12:25:42;;;;;;;6.07;3.83;;;;;;;15.99;48.00;100362.16;7389642;19;20343;-78
2023/10/18 12:28:14;;;;;;;7.00;4.80;;;;;;;16.10;48.58;100364.09;7393766;19;20738;-78
2023/10/18 12:30:51;;;;;;;7.35;4.20;;;;;;;16.23;49.60;100363.97;7394007;19;20389;-78
2023/10/18 12:33:27;;;;;;;5.18;3.80;;;;;;;16.27;48.13;100364.38;7398609;19;20374;-78
2023/10/18 12:35:59;;;;;;;6.22;3.90;;;;;;;16.23;48.43;100363.97;7395004;19;20374;-78
2023/10/18 12:38:43;;;;;;;5.77;3.77;;;;;;;16.22;48.26;100361.53;7393593;19;20547;-78